sensor_id;sensor_type;location;lat;lon;timestamp;P1;durP1;ratioP1;P2;durP2;ratioP2
70757;SDS011;59316;52.964;7.102;2023-10-09T00:05:16;6.18;;;1.80;;
70757;SDS011;59316;52.964;7.102;2023-10-09T00:10:37;4.80;;;2.10;;
70757;SDS011;59316;52.964;7.102;2023-10-09T00:16:03;11.05;;;2.42;;
70757;SDS011;59316;52.964;7.102;2023-10-09T00:21:25;6.15;;;2.15;;
70757;SDS011;59316;52.964;7.102;2023-10-09T00:26:46;7.10;;;2.35;;
70757;SDS011;59316;52.964;7.102;2023-10-09T00:32:07;6.40;;;2.83;;
70757;SDS011;59316;52.964;7.102;2023-10-09T00:37:28;5.60;;;2.50;;
70757;SDS011;59316;52.964;7.102;2023-10-09T00:42:49;5.55;;;2.78;;
70757;SDS011;59316;52.964;7.102;2023-10-09T00:48:10;10.23;;;3.00;;
70757;SDS011;59316;52.964;7.102;2023-10-09T00:53:32;8.25;;;3.30;;
70757;SDS011;59316;52.964;7.102;2023-10-09T00:58:53;8.13;;;3.22;;
70757;SDS011;59316;52.964;7.102;2023-10-09T01:04:18;12.48;;;4.10;;
70757;SDS011;59316;52.964;7.102;2023-10-09T01:09:40;8.10;;;3.45;;
70757;SDS011;59316;52.964;7.102;2023-10-09T01:15:01;14.60;;;4.20;;
70757;SDS011;59316;52.964;7.102;2023-10-09T01:20:23;14.32;;;4.05;;
70757;SDS011;59316;52.964;7.102;2023-10-09T01:25:44;15.18;;;4.70;;
70757;SDS011;59316;52.964;7.102;2023-10-09T01:31:05;10.27;;;3.92;;
70757;SDS011;59316;52.964;7.102;2023-10-09T01:36:26;8.50;;;4.40;;
70757;SDS011;59316;52.964;7.102;2023-10-09T01:41:48;10.70;;;4.95;;
70757;SDS011;59316;52.964;7.102;2023-10-09T01:47:12;13.88;;;5.72;;
70757;SDS011;59316;52.964;7.102;2023-10-09T01:52:33;12.75;;;4.95;;
70757;SDS011;59316;52.964;7.102;2023-10-09T01:57:54;9.98;;;4.32;;
70757;SDS011;59316;52.964;7.102;2023-10-09T02:03:18;13.27;;;4.55;;
70757;SDS011;59316;52.964;7.102;2023-10-09T02:08:39;14.48;;;5.25;;
70757;SDS011;59316;52.964;7.102;2023-10-09T02:14:00;12.25;;;5.55;;
70757;SDS011;59316;52.964;7.102;2023-10-09T02:19:21;14.48;;;5.65;;
70757;SDS011;59316;52.964;7.102;2023-10-09T02:24:44;17.40;;;5.20;;
70757;SDS011;59316;52.964;7.102;2023-10-09T02:30:05;11.13;;;5.40;;
70757;SDS011;59316;52.964;7.102;2023-10-09T02:35:27;15.77;;;6.60;;
70757;SDS011;59316;52.964;7.102;2023-10-09T02:40:51;15.57;;;6.05;;
70757;SDS011;59316;52.964;7.102;2023-10-09T02:46:13;15.45;;;7.28;;
70757;SDS011;59316;52.964;7.102;2023-10-09T02:51:35;17.85;;;7.22;;
70757;SDS011;59316;52.964;7.102;2023-10-09T02:56:56;21.77;;;10.13;;
70757;SDS011;59316;52.964;7.102;2023-10-09T03:02:17;28.33;;;11.00;;
70757;SDS011;59316;52.964;7.102;2023-10-09T03:07:39;29.83;;;12.20;;
70757;SDS011;59316;52.964;7.102;2023-10-09T03:13:00;33.78;;;12.00;;
70757;SDS011;59316;52.964;7.102;2023-10-09T03:18:21;32.75;;;13.00;;
70757;SDS011;59316;52.964;7.102;2023-10-09T03:23:48;38.83;;;14.55;;
70757;SDS011;59316;52.964;7.102;2023-10-09T03:29:09;43.95;;;15.75;;
70757;SDS011;59316;52.964;7.102;2023-10-09T03:34:31;38.63;;;15.18;;
70757;SDS011;59316;52.964;7.102;2023-10-09T03:39:51;44.38;;;16.95;;
70757;SDS011;59316;52.964;7.102;2023-10-09T03:45:12;43.85;;;17.15;;
70757;SDS011;59316;52.964;7.102;2023-10-09T03:50:34;42.00;;;17.52;;
70757;SDS011;59316;52.964;7.102;2023-10-09T03:55:55;41.72;;;16.60;;
70757;SDS011;59316;52.964;7.102;2023-10-09T04:01:17;48.58;;;16.48;;
70757;SDS011;59316;52.964;7.102;2023-10-09T04:06:39;46.63;;;16.85;;
70757;SDS011;59316;52.964;7.102;2023-10-09T04:12:00;46.42;;;17.08;;
70757;SDS011;59316;52.964;7.102;2023-10-09T04:17:21;44.53;;;18.17;;
70757;SDS011;59316;52.964;7.102;2023-10-09T04:22:43;45.90;;;18.75;;
70757;SDS011;59316;52.964;7.102;2023-10-09T04:28:04;51.05;;;19.02;;
70757;SDS011;59316;52.964;7.102;2023-10-09T04:33:25;53.17;;;19.13;;
70757;SDS011;59316;52.964;7.102;2023-10-09T04:38:46;42.65;;;17.85;;
70757;SDS011;59316;52.964;7.102;2023-10-09T04:44:08;55.28;;;20.45;;
70757;SDS011;59316;52.964;7.102;2023-10-09T04:49:29;52.60;;;20.35;;
70757;SDS011;59316;52.964;7.102;2023-10-09T04:54:50;56.80;;;20.42;;
70757;SDS011;59316;52.964;7.102;2023-10-09T05:00:15;63.83;;;21.90;;
70757;SDS011;59316;52.964;7.102;2023-10-09T05:05:38;63.90;;;21.73;;
70757;SDS011;59316;52.964;7.102;2023-10-09T05:11:03;67.88;;;23.17;;
70757;SDS011;59316;52.964;7.102;2023-10-09T05:16:24;69.70;;;22.70;;
70757;SDS011;59316;52.964;7.102;2023-10-09T05:21:45;66.20;;;23.60;;
70757;SDS011;59316;52.964;7.102;2023-10-09T05:27:06;65.85;;;22.85;;
70757;SDS011;59316;52.964;7.102;2023-10-09T05:32:27;61.67;;;22.38;;
70757;SDS011;59316;52.964;7.102;2023-10-09T05:37:48;69.53;;;23.35;;
70757;SDS011;59316;52.964;7.102;2023-10-09T05:43:09;86.75;;;27.35;;
70757;SDS011;59316;52.964;7.102;2023-10-09T05:48:30;67.00;;;24.10;;
70757;SDS011;59316;52.964;7.102;2023-10-09T05:53:51;63.38;;;22.58;;
70757;SDS011;59316;52.964;7.102;2023-10-09T05:59:12;63.88;;;22.30;;
70757;SDS011;59316;52.964;7.102;2023-10-09T06:04:34;63.28;;;23.38;;
70757;SDS011;59316;52.964;7.102;2023-10-09T06:09:55;56.05;;;22.95;;
70757;SDS011;59316;52.964;7.102;2023-10-09T06:15:18;64.00;;;22.02;;
70757;SDS011;59316;52.964;7.102;2023-10-09T06:20:39;60.78;;;22.17;;
70757;SDS011;59316;52.964;7.102;2023-10-09T06:26:00;62.28;;;21.08;;
70757;SDS011;59316;52.964;7.102;2023-10-09T06:31:21;49.88;;;20.70;;
70757;SDS011;59316;52.964;7.102;2023-10-09T06:36:42;52.92;;;21.25;;
70757;SDS011;59316;52.964;7.102;2023-10-09T06:42:04;47.78;;;19.00;;
70757;SDS011;59316;52.964;7.102;2023-10-09T06:47:26;51.60;;;18.92;;
70757;SDS011;59316;52.964;7.102;2023-10-09T06:52:48;46.75;;;17.90;;
70757;SDS011;59316;52.964;7.102;2023-10-09T06:58:09;44.30;;;17.90;;
70757;SDS011;59316;52.964;7.102;2023-10-09T07:03:30;39.38;;;16.80;;
70757;SDS011;59316;52.964;7.102;2023-10-09T07:08:52;42.13;;;16.23;;
70757;SDS011;59316;52.964;7.102;2023-10-09T07:14:15;40.40;;;15.52;;
70757;SDS011;59316;52.964;7.102;2023-10-09T07:19:37;35.22;;;15.05;;
70757;SDS011;59316;52.964;7.102;2023-10-09T07:24:58;31.63;;;14.20;;
70757;SDS011;59316;52.964;7.102;2023-10-09T07:30:20;27.05;;;12.30;;
70757;SDS011;59316;52.964;7.102;2023-10-09T07:35:45;27.60;;;11.95;;
70757;SDS011;59316;52.964;7.102;2023-10-09T07:41:08;31.23;;;12.52;;
70757;SDS011;59316;52.964;7.102;2023-10-09T07:46:29;27.40;;;10.07;;
70757;SDS011;59316;52.964;7.102;2023-10-09T07:51:50;23.88;;;10.75;;
70757;SDS011;59316;52.964;7.102;2023-10-09T07:57:11;27.85;;;10.88;;
70757;SDS011;59316;52.964;7.102;2023-10-09T08:02:32;21.73;;;10.05;;
70757;SDS011;59316;52.964;7.102;2023-10-09T08:07:53;20.52;;;9.93;;
70757;SDS011;59316;52.964;7.102;2023-10-09T08:13:31;23.45;;;10.88;;
70757;SDS011;59316;52.964;7.102;2023-10-09T08:18:52;19.58;;;9.50;;
70757;SDS011;59316;52.964;7.102;2023-10-09T08:24:13;25.88;;;10.07;;
70757;SDS011;59316;52.964;7.102;2023-10-09T08:29:34;22.35;;;10.60;;
70757;SDS011;59316;52.964;7.102;2023-10-09T08:34:55;23.13;;;9.88;;
70757;SDS011;59316;52.964;7.102;2023-10-09T08:40:21;22.20;;;9.65;;
70757;SDS011;59316;52.964;7.102;2023-10-09T08:45:48;24.92;;;10.55;;
70757;SDS011;59316;52.964;7.102;2023-10-09T08:51:12;17.67;;;9.43;;
70757;SDS011;59316;52.964;7.102;2023-10-09T08:56:34;18.50;;;9.00;;
70757;SDS011;59316;52.964;7.102;2023-10-09T09:01:56;20.40;;;9.45;;
70757;SDS011;59316;52.964;7.102;2023-10-09T09:07:27;24.35;;;9.20;;
70757;SDS011;59316;52.964;7.102;2023-10-09T09:12:49;26.13;;;9.13;;
70757;SDS011;59316;52.964;7.102;2023-10-09T09:18:10;20.60;;;8.85;;
70757;SDS011;59316;52.964;7.102;2023-10-09T09:23:31;22.35;;;9.20;;
70757;SDS011;59316;52.964;7.102;2023-10-09T09:28:52;25.27;;;9.30;;
70757;SDS011;59316;52.964;7.102;2023-10-09T09:34:13;16.98;;;8.38;;
70757;SDS011;59316;52.964;7.102;2023-10-09T09:39:35;18.45;;;9.18;;
70757;SDS011;59316;52.964;7.102;2023-10-09T09:45:14;19.45;;;9.00;;
70757;SDS011;59316;52.964;7.102;2023-10-09T09:50:35;16.05;;;7.75;;
70757;SDS011;59316;52.964;7.102;2023-10-09T09:55:56;15.68;;;8.43;;
70757;SDS011;59316;52.964;7.102;2023-10-09T10:01:17;12.02;;;7.75;;
70757;SDS011;59316;52.964;7.102;2023-10-09T10:06:38;16.13;;;7.20;;
70757;SDS011;59316;52.964;7.102;2023-10-09T10:12:03;15.02;;;7.55;;
70757;SDS011;59316;52.964;7.102;2023-10-09T10:17:25;15.55;;;6.88;;
70757;SDS011;59316;52.964;7.102;2023-10-09T10:22:47;11.23;;;6.18;;
70757;SDS011;59316;52.964;7.102;2023-10-09T10:39:15;15.85;;;7.40;;
70757;SDS011;59316;52.964;7.102;2023-10-09T10:44:37;15.90;;;7.55;;
70757;SDS011;59316;52.964;7.102;2023-10-09T10:49:58;12.75;;;6.97;;
70757;SDS011;59316;52.964;7.102;2023-10-09T10:55:19;13.00;;;6.63;;
70757;SDS011;59316;52.964;7.102;2023-10-09T11:00:41;13.05;;;6.32;;
70757;SDS011;59316;52.964;7.102;2023-10-09T11:06:02;13.73;;;6.45;;
70757;SDS011;59316;52.964;7.102;2023-10-09T11:11:23;11.70;;;6.22;;
70757;SDS011;59316;52.964;7.102;2023-10-09T11:16:44;17.10;;;6.97;;
70757;SDS011;59316;52.964;7.102;2023-10-09T11:22:05;14.10;;;6.50;;
70757;SDS011;59316;52.964;7.102;2023-10-09T11:27:26;16.65;;;7.20;;
70757;SDS011;59316;52.964;7.102;2023-10-09T11:32:47;12.65;;;6.35;;
70757;SDS011;59316;52.964;7.102;2023-10-09T11:38:08;16.25;;;6.35;;
70757;SDS011;59316;52.964;7.102;2023-10-09T11:43:30;15.73;;;7.10;;
70757;SDS011;59316;52.964;7.102;2023-10-09T11:49:05;15.13;;;6.20;;
70757;SDS011;59316;52.964;7.102;2023-10-09T11:54:33;17.95;;;7.68;;
70757;SDS011;59316;52.964;7.102;2023-10-09T11:59:54;20.73;;;7.57;;
70757;SDS011;59316;52.964;7.102;2023-10-09T12:05:15;15.98;;;8.10;;
70757;SDS011;59316;52.964;7.102;2023-10-09T12:10:36;16.55;;;6.55;;
70757;SDS011;59316;52.964;7.102;2023-10-09T12:15:58;16.48;;;7.40;;
70757;SDS011;59316;52.964;7.102;2023-10-09T12:21:20;14.05;;;5.80;;
70757;SDS011;59316;52.964;7.102;2023-10-09T12:26:41;12.23;;;5.60;;
70757;SDS011;59316;52.964;7.102;2023-10-09T12:32:02;12.02;;;5.13;;
70757;SDS011;59316;52.964;7.102;2023-10-09T12:37:23;13.90;;;5.03;;
70757;SDS011;59316;52.964;7.102;2023-10-09T12:42:44;15.18;;;5.70;;
70757;SDS011;59316;52.964;7.102;2023-10-09T12:48:05;13.70;;;6.82;;
70757;SDS011;59316;52.964;7.102;2023-10-09T12:53:26;13.32;;;4.65;;
70757;SDS011;59316;52.964;7.102;2023-10-09T12:58:49;9.23;;;3.83;;
70757;SDS011;59316;52.964;7.102;2023-10-09T13:04:10;12.63;;;3.60;;
70757;SDS011;59316;52.964;7.102;2023-10-09T13:09:32;7.03;;;2.83;;
70757;SDS011;59316;52.964;7.102;2023-10-09T13:14:53;9.05;;;3.15;;
70757;SDS011;59316;52.964;7.102;2023-10-09T13:20:14;8.63;;;3.13;;
70757;SDS011;59316;52.964;7.102;2023-10-09T13:25:35;8.88;;;2.88;;
70757;SDS011;59316;52.964;7.102;2023-10-09T13:30:56;11.40;;;2.95;;
70757;SDS011;59316;52.964;7.102;2023-10-09T13:36:17;11.90;;;3.53;;
70757;SDS011;59316;52.964;7.102;2023-10-09T13:41:38;9.05;;;2.85;;
70757;SDS011;59316;52.964;7.102;2023-10-09T13:47:00;9.80;;;2.53;;
70757;SDS011;59316;52.964;7.102;2023-10-09T13:52:22;10.70;;;2.50;;
70757;SDS011;59316;52.964;7.102;2023-10-09T13:57:43;12.07;;;2.97;;
70757;SDS011;59316;52.964;7.102;2023-10-09T14:03:04;7.32;;;3.03;;
70757;SDS011;59316;52.964;7.102;2023-10-09T14:08:25;5.68;;;2.40;;
70757;SDS011;59316;52.964;7.102;2023-10-09T14:13:46;5.00;;;2.10;;
70757;SDS011;59316;52.964;7.102;2023-10-09T14:19:18;6.78;;;2.65;;
70757;SDS011;59316;52.964;7.102;2023-10-09T14:24:39;9.68;;;2.33;;
70757;SDS011;59316;52.964;7.102;2023-10-09T14:30:00;6.75;;;2.10;;
70757;SDS011;59316;52.964;7.102;2023-10-09T14:35:21;5.75;;;2.13;;
70757;SDS011;59316;52.964;7.102;2023-10-09T14:40:42;4.07;;;1.90;;
70757;SDS011;59316;52.964;7.102;2023-10-09T14:46:04;5.03;;;2.40;;
70757;SDS011;59316;52.964;7.102;2023-10-09T14:51:25;5.95;;;2.25;;
70757;SDS011;59316;52.964;7.102;2023-10-09T14:56:47;5.53;;;2.88;;
70757;SDS011;59316;52.964;7.102;2023-10-09T15:02:08;6.15;;;2.33;;
70757;SDS011;59316;52.964;7.102;2023-10-09T15:07:29;7.90;;;2.20;;
70757;SDS011;59316;52.964;7.102;2023-10-09T15:12:57;9.77;;;2.47;;
70757;SDS011;59316;52.964;7.102;2023-10-09T15:18:18;6.65;;;2.20;;
70757;SDS011;59316;52.964;7.102;2023-10-09T15:23:38;10.40;;;2.25;;
70757;SDS011;59316;52.964;7.102;2023-10-09T15:29:00;7.07;;;2.95;;
70757;SDS011;59316;52.964;7.102;2023-10-09T15:34:21;8.05;;;3.05;;
70757;SDS011;59316;52.964;7.102;2023-10-09T15:39:42;7.85;;;2.55;;
70757;SDS011;59316;52.964;7.102;2023-10-09T15:45:04;7.30;;;2.40;;
70757;SDS011;59316;52.964;7.102;2023-10-09T15:50:25;6.80;;;2.33;;
70757;SDS011;59316;52.964;7.102;2023-10-09T15:55:46;5.22;;;2.83;;
70757;SDS011;59316;52.964;7.102;2023-10-09T16:01:09;10.35;;;4.13;;
70757;SDS011;59316;52.964;7.102;2023-10-09T16:06:31;8.60;;;2.85;;
70757;SDS011;59316;52.964;7.102;2023-10-09T16:11:52;8.23;;;3.05;;
70757;SDS011;59316;52.964;7.102;2023-10-09T16:17:13;8.18;;;3.00;;
70757;SDS011;59316;52.964;7.102;2023-10-09T16:22:34;10.63;;;3.10;;
70757;SDS011;59316;52.964;7.102;2023-10-09T16:27:55;7.13;;;2.72;;
70757;SDS011;59316;52.964;7.102;2023-10-09T16:33:16;10.05;;;3.33;;
70757;SDS011;59316;52.964;7.102;2023-10-09T16:38:37;11.45;;;3.83;;
70757;SDS011;59316;52.964;7.102;2023-10-09T16:43:58;12.52;;;3.58;;
70757;SDS011;59316;52.964;7.102;2023-10-09T16:49:19;8.55;;;3.20;;
70757;SDS011;59316;52.964;7.102;2023-10-09T16:54:40;8.30;;;3.20;;
70757;SDS011;59316;52.964;7.102;2023-10-09T17:00:02;8.07;;;3.50;;
70757;SDS011;59316;52.964;7.102;2023-10-09T17:05:23;4.40;;;2.47;;
70757;SDS011;59316;52.964;7.102;2023-10-09T17:10:48;8.40;;;3.70;;
70757;SDS011;59316;52.964;7.102;2023-10-09T17:16:16;8.57;;;3.33;;
70757;SDS011;59316;52.964;7.102;2023-10-09T17:21:40;10.82;;;3.28;;
70757;SDS011;59316;52.964;7.102;2023-10-09T17:27:01;10.70;;;3.10;;
70757;SDS011;59316;52.964;7.102;2023-10-09T17:32:22;9.70;;;3.15;;
70757;SDS011;59316;52.964;7.102;2023-10-09T17:37:44;6.32;;;2.90;;
70757;SDS011;59316;52.964;7.102;2023-10-09T17:43:05;8.93;;;3.13;;
70757;SDS011;59316;52.964;7.102;2023-10-09T17:48:26;3.67;;;2.90;;
70757;SDS011;59316;52.964;7.102;2023-10-09T17:53:47;9.60;;;3.35;;
70757;SDS011;59316;52.964;7.102;2023-10-09T17:59:08;8.25;;;3.08;;
70757;SDS011;59316;52.964;7.102;2023-10-09T18:04:29;7.30;;;2.55;;
70757;SDS011;59316;52.964;7.102;2023-10-09T18:09:50;8.57;;;2.80;;
70757;SDS011;59316;52.964;7.102;2023-10-09T18:15:11;4.32;;;2.10;;
70757;SDS011;59316;52.964;7.102;2023-10-09T18:20:32;7.32;;;2.30;;
70757;SDS011;59316;52.964;7.102;2023-10-09T18:25:57;11.00;;;3.33;;
70757;SDS011;59316;52.964;7.102;2023-10-09T18:31:18;8.48;;;3.72;;
70757;SDS011;59316;52.964;7.102;2023-10-09T18:36:39;11.57;;;4.70;;
70757;SDS011;59316;52.964;7.102;2023-10-09T18:42:00;52.35;;;22.77;;
70757;SDS011;59316;52.964;7.102;2023-10-09T18:47:21;15.00;;;6.78;;
70757;SDS011;59316;52.964;7.102;2023-10-09T18:52:43;9.60;;;4.85;;
70757;SDS011;59316;52.964;7.102;2023-10-09T18:58:04;9.55;;;3.65;;
70757;SDS011;59316;52.964;7.102;2023-10-09T19:03:25;23.52;;;11.35;;
70757;SDS011;59316;52.964;7.102;2023-10-09T19:08:46;12.93;;;5.13;;
70757;SDS011;59316;52.964;7.102;2023-10-09T19:14:07;5.30;;;3.17;;
70757;SDS011;59316;52.964;7.102;2023-10-09T19:19:28;6.40;;;3.00;;
70757;SDS011;59316;52.964;7.102;2023-10-09T19:24:49;8.07;;;2.55;;
70757;SDS011;59316;52.964;7.102;2023-10-09T19:30:10;5.32;;;2.38;;
70757;SDS011;59316;52.964;7.102;2023-10-09T19:35:32;7.95;;;1.98;;
70757;SDS011;59316;52.964;7.102;2023-10-09T19:40:53;6.53;;;2.22;;
70757;SDS011;59316;52.964;7.102;2023-10-09T19:46:14;7.75;;;2.17;;
70757;SDS011;59316;52.964;7.102;2023-10-09T19:51:35;6.15;;;2.30;;
70757;SDS011;59316;52.964;7.102;2023-10-09T19:56:56;5.38;;;2.40;;
70757;SDS011;59316;52.964;7.102;2023-10-09T20:02:17;4.95;;;2.20;;
70757;SDS011;59316;52.964;7.102;2023-10-09T20:07:38;4.78;;;2.40;;
70757;SDS011;59316;52.964;7.102;2023-10-09T20:12:59;13.57;;;3.08;;
70757;SDS011;59316;52.964;7.102;2023-10-09T20:18:20;7.13;;;2.53;;
70757;SDS011;59316;52.964;7.102;2023-10-09T20:23:42;7.00;;;2.53;;
70757;SDS011;59316;52.964;7.102;2023-10-09T20:29:03;7.60;;;2.70;;
70757;SDS011;59316;52.964;7.102;2023-10-09T20:34:24;7.68;;;2.40;;
70757;SDS011;59316;52.964;7.102;2023-10-09T20:39:45;8.18;;;2.45;;
70757;SDS011;59316;52.964;7.102;2023-10-09T20:45:06;6.72;;;2.30;;
70757;SDS011;59316;52.964;7.102;2023-10-09T20:50:27;4.40;;;2.47;;
70757;SDS011;59316;52.964;7.102;2023-10-09T20:55:49;7.30;;;2.33;;
70757;SDS011;59316;52.964;7.102;2023-10-09T21:01:13;7.70;;;2.97;;
70757;SDS011;59316;52.964;7.102;2023-10-09T21:06:34;5.05;;;2.60;;
70757;SDS011;59316;52.964;7.102;2023-10-09T21:11:55;5.82;;;2.45;;
70757;SDS011;59316;52.964;7.102;2023-10-09T21:17:16;11.15;;;3.47;;
70757;SDS011;59316;52.964;7.102;2023-10-09T21:22:36;7.57;;;2.97;;
70757;SDS011;59316;52.964;7.102;2023-10-09T21:27:58;8.75;;;2.90;;
70757;SDS011;59316;52.964;7.102;2023-10-09T21:33:19;6.82;;;3.13;;
70757;SDS011;59316;52.964;7.102;2023-10-09T21:38:40;7.80;;;2.90;;
70757;SDS011;59316;52.964;7.102;2023-10-09T21:44:01;9.80;;;3.30;;
70757;SDS011;59316;52.964;7.102;2023-10-09T21:49:22;6.32;;;3.50;;
70757;SDS011;59316;52.964;7.102;2023-10-09T21:54:43;5.35;;;2.83;;
70757;SDS011;59316;52.964;7.102;2023-10-09T22:00:05;8.20;;;3.53;;
70757;SDS011;59316;52.964;7.102;2023-10-09T22:05:31;7.25;;;3.05;;
70757;SDS011;59316;52.964;7.102;2023-10-09T22:10:56;6.68;;;3.38;;
70757;SDS011;59316;52.964;7.102;2023-10-09T22:16:24;8.85;;;3.33;;
70757;SDS011;59316;52.964;7.102;2023-10-09T22:21:45;7.55;;;3.80;;
70757;SDS011;59316;52.964;7.102;2023-10-09T22:27:09;7.38;;;3.75;;
70757;SDS011;59316;52.964;7.102;2023-10-09T22:32:30;7.40;;;3.72;;
70757;SDS011;59316;52.964;7.102;2023-10-09T22:37:51;6.43;;;3.63;;
70757;SDS011;59316;52.964;7.102;2023-10-09T22:43:12;8.70;;;3.38;;
70757;SDS011;59316;52.964;7.102;2023-10-09T22:48:33;6.97;;;3.22;;
70757;SDS011;59316;52.964;7.102;2023-10-09T22:53:55;6.18;;;3.38;;
70757;SDS011;59316;52.964;7.102;2023-10-09T22:59:16;6.38;;;3.03;;
70757;SDS011;59316;52.964;7.102;2023-10-09T23:04:37;6.57;;;3.00;;
70757;SDS011;59316;52.964;7.102;2023-10-09T23:09:58;4.28;;;2.90;;
70757;SDS011;59316;52.964;7.102;2023-10-09T23:15:19;8.32;;;3.47;;
70757;SDS011;59316;52.964;7.102;2023-10-09T23:20:41;12.40;;;3.53;;
70757;SDS011;59316;52.964;7.102;2023-10-09T23:26:02;7.90;;;3.33;;
70757;SDS011;59316;52.964;7.102;2023-10-09T23:31:23;9.52;;;3.35;;
70757;SDS011;59316;52.964;7.102;2023-10-09T23:36:43;9.73;;;3.72;;
70757;SDS011;59316;52.964;7.102;2023-10-09T23:42:05;9.10;;;3.42;;
70757;SDS011;59316;52.964;7.102;2023-10-09T23:47:26;8.13;;;3.38;;
70757;SDS011;59316;52.964;7.102;2023-10-09T23:52:47;6.93;;;3.50;;
70757;SDS011;59316;52.964;7.102;2023-10-09T23:58:09;10.73;;;3.67;;
